createdAt,value
2017-12-29T00:00:42.746Z,99482.86
2017-12-29T00:03:11.122Z,99485.32
2017-12-29T00:05:39.447Z,99492.12
2017-12-29T00:08:07.829Z,99488.11
2017-12-29T00:10:36.967Z,99496.14
2017-12-29T00:13:06.083Z,99494.70
2017-12-29T00:15:34.423Z,99498.50
2017-12-29T00:18:02.761Z,99506.86
2017-12-29T00:20:31.109Z,99507.68
2017-12-29T00:22:59.480Z,99511.17
2017-12-29T00:25:27.847Z,99503.44
2017-12-29T00:27:56.937Z,99518.91
2017-12-29T00:30:26.072Z,99521.36
2017-12-29T00:32:54.397Z,99518.91
2017-12-29T00:35:22.761Z,99520.87
2017-12-29T00:37:51.090Z,99515.59
2017-12-29T00:40:19.493Z,99513.55
2017-12-29T00:42:47.894Z,99516.73
2017-12-29T00:45:16.218Z,99519.52
2017-12-29T00:47:44.551Z,99520.44
2017-12-29T00:50:12.916Z,99526.61
2017-12-29T00:52:41.249Z,99529.70
2017-12-29T00:55:09.580Z,99536.39
2017-12-29T00:57:37.952Z,99531.12
2017-12-29T01:00:06.280Z,99527.63
2017-12-29T01:02:34.605Z,99527.10
2017-12-29T01:05:02.967Z,99524.66
2017-12-29T01:07:31.282Z,99523.73
2017-12-29T01:09:59.597Z,99527.02
2017-12-29T01:12:27.944Z,99523.84
2017-12-29T01:14:57.204Z,99530.02
2017-12-29T01:17:25.566Z,99539.20
2017-12-29T01:19:53.889Z,99537.64
2017-12-29T01:22:22.493Z,99532.58
2017-12-29T01:24:51.619Z,99530.42
2017-12-29T01:27:19.962Z,99537.75
2017-12-29T01:29:49.077Z,99530.84
2017-12-29T01:32:17.444Z,99541.55
2017-12-29T01:34:45.784Z,99549.28
2017-12-29T01:37:14.144Z,99549.06
2017-12-29T01:39:42.482Z,99549.05
2017-12-29T01:42:10.851Z,99564.46
2017-12-29T01:44:39.999Z,99560.73
2017-12-29T01:47:08.339Z,99567.72
2017-12-29T01:49:36.737Z,99568.45
2017-12-29T01:52:05.087Z,99566.02
2017-12-29T01:54:33.484Z,99571.98
2017-12-29T01:57:01.809Z,99576.92
2017-12-29T01:59:30.142Z,99572.50
2017-12-29T02:01:58.462Z,99568.48
2017-12-29T02:04:26.819Z,99574.25
2017-12-29T02:06:55.176Z,99575.30
2017-12-29T02:09:23.499Z,99582.75
2017-12-29T02:11:51.848Z,99581.59
2017-12-29T02:14:20.163Z,99580.48
2017-12-29T02:16:48.489Z,99585.61
2017-12-29T02:19:16.854Z,99590.14
2017-12-29T02:21:46.023Z,99600.02
2017-12-29T02:24:15.105Z,99601.06
2017-12-29T02:26:43.461Z,99598.98
2017-12-29T02:29:11.805Z,99602.06
2017-12-29T02:31:40.117Z,99601.14
2017-12-29T02:34:08.483Z,99607.70
2017-12-29T02:36:36.839Z,99608.72
2017-12-29T02:39:05.167Z,99616.36
2017-12-29T02:41:33.505Z,99615.21
2017-12-29T02:44:01.837Z,99612.12
2017-12-29T02:46:30.918Z,99613.04
2017-12-29T02:48:59.246Z,99613.16
2017-12-29T02:51:27.635Z,99612.52
2017-12-29T02:53:55.977Z,99609.00
2017-12-29T02:56:24.294Z,99608.58
2017-12-29T02:58:52.645Z,99613.99
2017-12-29T03:01:20.968Z,99599.67
2017-12-29T03:03:49.309Z,99601.55
2017-12-29T03:06:17.652Z,99608.58
2017-12-29T03:08:46.783Z,99607.27
2017-12-29T03:11:15.115Z,99614.67
2017-12-29T03:13:43.487Z,99611.92
2017-12-29T03:16:11.844Z,99609.33
2017-12-29T03:18:40.183Z,99613.88
2017-12-29T03:21:08.609Z,99619.34
2017-12-29T03:23:36.951Z,99616.48
2017-12-29T03:26:05.288Z,99617.09
2017-12-29T03:28:34.417Z,99625.63
2017-12-29T03:31:02.773Z,99624.39
2017-12-29T03:33:31.143Z,99632.20
2017-12-29T03:36:00.251Z,99626.44
2017-12-29T03:38:28.579Z,99628.69
2017-12-29T03:40:56.937Z,99634.86
2017-12-29T03:43:25.274Z,99642.61
2017-12-29T03:45:54.397Z,99637.34
2017-12-29T03:48:22.722Z,99639.55
2017-12-29T03:50:51.087Z,99634.20
2017-12-29T03:53:19.420Z,99634.43
2017-12-29T03:55:47.763Z,99640.02
2017-12-29T03:58:16.892Z,99642.88
2017-12-29T04:00:45.228Z,99649.68
2017-12-29T04:03:13.548Z,99649.47
2017-12-29T04:05:41.894Z,99651.53
2017-12-29T04:08:10.251Z,99654.47
2017-12-29T04:10:38.619Z,99654.20
2017-12-29T04:13:06.995Z,99657.84
2017-12-29T04:15:35.335Z,99660.61
2017-12-29T04:18:03.725Z,99665.86
2017-12-29T04:20:32.099Z,99664.00
2017-12-29T04:23:00.437Z,99667.02
2017-12-29T04:25:29.539Z,99670.62
2017-12-29T04:27:58.669Z,99666.92
2017-12-29T04:30:27.019Z,99679.27
2017-12-29T04:32:55.370Z,99677.09
2017-12-29T04:35:23.699Z,99680.87
2017-12-29T04:37:52.066Z,99686.34
2017-12-29T04:40:20.376Z,99688.41
2017-12-29T04:42:48.706Z,99689.66
2017-12-29T04:45:17.815Z,99695.59
2017-12-29T04:47:46.139Z,99703.77
2017-12-29T04:50:14.517Z,99704.39
2017-12-29T04:52:42.861Z,99702.94
2017-12-29T04:55:11.202Z,99704.61
2017-12-29T05:00:14.950Z,99707.14
2017-12-29T05:02:43.280Z,99713.86
2017-12-29T05:05:11.610Z,99710.19
2017-12-29T05:07:39.961Z,99716.94
2017-12-29T05:10:09.074Z,99712.08
2017-12-29T05:12:37.469Z,99717.88
2017-12-29T05:15:05.812Z,99712.75
2017-12-29T05:17:34.903Z,99711.68
2017-12-29T05:20:04.084Z,99713.77
2017-12-29T05:22:32.412Z,99719.42
2017-12-29T05:25:00.779Z,99707.45
2017-12-29T05:27:29.134Z,99708.75
2017-12-29T05:29:58.229Z,99701.73
2017-12-29T05:32:27.340Z,99707.21
2017-12-29T05:34:55.661Z,99704.67
2017-12-29T05:37:24.022Z,99702.73
2017-12-29T05:39:52.384Z,99703.25
2017-12-29T05:42:20.724Z,99698.50
2017-12-29T05:44:49.058Z,99696.19
2017-12-29T05:47:17.415Z,99699.95
2017-12-29T05:49:45.750Z,99703.59
2017-12-29T05:52:14.126Z,99701.53
2017-12-29T05:54:42.460Z,99703.98
2017-12-29T05:57:10.783Z,99708.55
2017-12-29T05:59:39.147Z,99708.95
2017-12-29T06:02:07.501Z,99711.73
2017-12-29T06:04:35.863Z,99712.97
2017-12-29T06:07:04.186Z,99715.73
2017-12-29T06:09:32.511Z,99718.34
2017-12-29T06:12:00.879Z,99714.38
2017-12-29T06:14:30.007Z,99714.00
2017-12-29T06:19:32.876Z,99721.02
2017-12-29T06:22:01.204Z,99715.00
2017-12-29T06:24:29.540Z,99718.91
2017-12-29T06:26:57.931Z,99723.16
2017-12-29T06:29:26.296Z,99726.16
2017-12-29T06:31:54.638Z,99731.50
2017-12-29T06:34:23.777Z,99724.33
2017-12-29T06:36:52.089Z,99730.84
2017-12-29T06:39:20.417Z,99729.58
2017-12-29T06:41:48.815Z,99739.61
2017-12-29T06:44:17.151Z,99742.41
2017-12-29T06:46:46.251Z,99746.62
2017-12-29T06:49:15.374Z,99745.84
2017-12-29T06:51:43.693Z,99757.30
2017-12-29T06:54:12.032Z,99760.34
2017-12-29T06:56:40.410Z,99767.84
2017-12-29T06:59:08.737Z,99773.59
2017-12-29T07:01:37.104Z,99775.16
2017-12-29T07:04:05.431Z,99775.16
2017-12-29T07:06:33.747Z,99774.52
2017-12-29T07:09:02.083Z,99788.52
2017-12-29T07:11:30.419Z,99788.80
2017-12-29T07:13:58.808Z,99787.80
2017-12-29T07:16:27.156Z,99781.73
2017-12-29T07:18:55.536Z,99788.08
2017-12-29T07:21:23.861Z,99793.59
2017-12-29T07:23:53.027Z,99793.92
2017-12-29T07:26:21.407Z,99800.72
2017-12-29T07:28:49.719Z,99798.88
2017-12-29T07:31:18.080Z,99799.16
2017-12-29T07:33:47.160Z,99797.92
2017-12-29T07:36:15.505Z,99802.48
2017-12-29T07:38:43.837Z,99797.65
2017-12-29T07:41:12.968Z,99797.28
2017-12-29T07:43:41.341Z,99800.23
2017-12-29T07:46:09.729Z,99808.46
2017-12-29T07:48:38.099Z,99803.84
2017-12-29T07:51:06.446Z,99802.09
2017-12-29T07:53:34.827Z,99810.95
2017-12-29T07:56:03.206Z,99811.81
2017-12-29T07:58:32.320Z,99816.23
2017-12-29T08:01:00.661Z,99816.48
2017-12-29T08:03:29.088Z,99819.41
2017-12-29T08:05:57.464Z,99821.42
2017-12-29T08:08:25.821Z,99826.42
2017-12-29T08:10:54.197Z,99831.15
2017-12-29T08:13:22.568Z,99830.21
2017-12-29T08:15:50.949Z,99826.83
2017-12-29T08:18:20.078Z,99829.64
2017-12-29T08:20:48.485Z,99836.66
2017-12-29T08:23:16.846Z,99842.55
2017-12-29T08:25:45.298Z,99842.51
2017-12-29T08:28:14.224Z,99838.80
2017-12-29T08:30:42.015Z,99848.69
2017-12-29T08:33:11.177Z,99853.34
2017-12-29T08:35:39.594Z,99851.97
2017-12-29T08:38:07.941Z,99860.25
2017-12-29T08:40:36.318Z,99860.66
2017-12-29T08:43:04.860Z,99869.76
2017-12-29T08:45:33.230Z,99869.77
2017-12-29T08:48:01.560Z,99873.89
2017-12-29T08:50:29.966Z,99872.50
2017-12-29T08:52:58.275Z,99883.25
2017-12-29T08:55:26.598Z,99881.09
2017-12-29T08:57:54.946Z,99883.02
2017-12-29T09:00:23.260Z,99882.50
2017-12-29T09:02:51.624Z,99883.66
2017-12-29T09:05:19.998Z,99886.44
2017-12-29T09:07:48.314Z,99878.51
2017-12-29T09:10:17.401Z,99882.20
2017-12-29T09:12:46.496Z,99886.86
2017-12-29T09:15:15.590Z,99888.94
2017-12-29T09:17:44.708Z,99893.57
2017-12-29T09:20:13.057Z,99898.64
2017-12-29T09:22:41.366Z,99898.20
2017-12-29T09:25:09.724Z,99903.28
2017-12-29T09:27:38.823Z,99895.86
2017-12-29T09:30:07.940Z,99900.69
2017-12-29T09:32:36.256Z,99897.88
2017-12-29T09:35:05.367Z,99889.22
2017-12-29T09:37:33.719Z,99893.34
2017-12-29T09:40:02.048Z,99888.80
2017-12-29T09:42:31.166Z,99885.07
2017-12-29T09:44:59.478Z,99881.34
2017-12-29T09:47:27.823Z,99877.66
2017-12-29T09:49:56.176Z,99882.09
2017-12-29T09:52:25.272Z,99875.80
2017-12-29T09:54:54.370Z,99875.21
2017-12-29T09:57:23.435Z,99876.20
2017-12-29T09:59:51.743Z,99878.78
2017-12-29T10:02:20.855Z,99877.03
2017-12-29T10:04:49.211Z,99870.12
2017-12-29T10:07:18.312Z,99869.47
2017-12-29T10:09:47.431Z,99863.52
2017-12-29T10:12:15.761Z,99869.24
2017-12-29T10:14:44.105Z,99860.34
2017-12-29T10:17:12.470Z,99858.89
2017-12-29T10:19:40.792Z,99853.10
2017-12-29T10:22:09.120Z,99848.36
2017-12-29T10:24:37.463Z,99850.96
2017-12-29T10:27:06.556Z,99842.79
2017-12-29T10:29:35.668Z,99840.91
2017-12-29T10:32:04.003Z,99840.08
2017-12-29T10:34:32.349Z,99842.24
2017-12-29T10:37:00.705Z,99832.31
2017-12-29T10:39:29.048Z,99833.55
2017-12-29T10:41:57.413Z,99836.23
2017-12-29T10:44:25.750Z,99834.79
2017-12-29T10:46:54.061Z,99830.51
2017-12-29T10:49:22.404Z,99844.73
2017-12-29T10:51:50.725Z,99849.61
2017-12-29T10:54:19.874Z,99846.94
2017-12-29T10:56:48.212Z,99842.45
2017-12-29T10:59:17.340Z,99839.17
2017-12-29T11:01:45.708Z,99834.61
2017-12-29T11:04:14.131Z,99830.66
2017-12-29T11:06:43.303Z,99831.16
2017-12-29T11:09:11.673Z,99833.83
2017-12-29T11:11:40.002Z,99832.70
2017-12-29T11:14:09.155Z,99831.47
2017-12-29T11:16:37.499Z,99821.39
2017-12-29T11:19:05.863Z,99812.64
2017-12-29T11:21:34.191Z,99809.33
2017-12-29T11:24:02.548Z,99810.20
2017-12-29T11:26:30.872Z,99801.16
2017-12-29T11:28:59.252Z,99806.22
2017-12-29T11:31:27.624Z,99801.77
2017-12-29T11:33:56.164Z,99809.52
2017-12-29T11:36:25.088Z,99805.75
2017-12-29T11:38:53.458Z,99809.47
2017-12-29T11:41:21.786Z,99807.31
2017-12-29T11:43:50.100Z,99801.02
2017-12-29T11:46:18.474Z,99797.19
2017-12-29T11:48:46.835Z,99800.20
2017-12-29T11:51:15.911Z,99782.95
2017-12-29T11:53:44.259Z,99788.75
2017-12-29T11:56:12.612Z,99789.80
2017-12-29T11:58:40.923Z,99791.84
2017-12-29T12:01:09.235Z,99786.03
2017-12-29T12:03:37.591Z,99788.84
2017-12-29T12:06:05.924Z,99784.87
2017-12-29T12:08:34.273Z,99790.69
2017-12-29T12:11:02.630Z,99786.41
2017-12-29T12:13:30.986Z,99788.27
2017-12-29T12:15:59.348Z,99783.67
2017-12-29T12:18:27.706Z,99782.41
2017-12-29T12:20:56.097Z,99785.30
2017-12-29T12:23:25.135Z,99781.30
2017-12-29T12:25:53.492Z,99780.05
2017-12-29T12:28:21.882Z,99778.09
2017-12-29T12:30:50.215Z,99788.81
2017-12-29T12:33:18.556Z,99778.08
2017-12-29T12:35:46.916Z,99780.74
2017-12-29T12:38:16.050Z,99788.48
2017-12-29T12:40:44.371Z,99790.67
2017-12-29T12:43:12.761Z,99798.19
2017-12-29T12:45:41.099Z,99794.81
2017-12-29T12:48:09.436Z,99798.28
2017-12-29T12:50:38.553Z,99790.54
2017-12-29T12:53:06.903Z,99786.58
2017-12-29T12:55:35.993Z,99784.70
2017-12-29T12:58:04.333Z,99773.03
2017-12-29T13:00:32.684Z,99771.93
2017-12-29T13:03:01.033Z,99768.61
2017-12-29T13:05:30.208Z,99762.44
2017-12-29T13:07:58.541Z,99761.11
2017-12-29T13:10:26.860Z,99755.59
2017-12-29T13:12:55.203Z,99759.12
2017-12-29T13:15:23.578Z,99764.31
2017-12-29T13:17:51.919Z,99757.15
2017-12-29T13:20:21.041Z,99758.53
2017-12-29T13:22:49.394Z,99755.13
2017-12-29T13:25:18.483Z,99754.33
2017-12-29T13:27:47.599Z,99753.22
2017-12-29T13:30:15.937Z,99745.94
2017-12-29T13:32:44.315Z,99749.08
2017-12-29T13:35:13.437Z,99744.57
2017-12-29T13:37:41.774Z,99744.68
2017-12-29T13:40:14.943Z,99740.81
2017-12-29T13:42:43.266Z,99743.24
2017-12-29T13:45:11.599Z,99735.44
2017-12-29T13:47:39.927Z,99732.29
2017-12-29T13:50:08.267Z,99734.56
2017-12-29T13:52:36.631Z,99740.30
2017-12-29T13:55:04.962Z,99744.42
2017-12-29T13:57:34.058Z,99742.52
2017-12-29T14:00:03.179Z,99748.22
2017-12-29T14:02:31.501Z,99747.64
2017-12-29T14:04:59.833Z,99747.84
2017-12-29T14:07:28.207Z,99751.84
2017-12-29T14:09:56.579Z,99759.58
2017-12-29T14:12:25.704Z,99753.30
2017-12-29T14:14:54.085Z,99760.66
2017-12-29T14:17:22.399Z,99763.36
2017-12-29T14:19:50.737Z,99765.05
2017-12-29T14:22:19.090Z,99765.77
2017-12-29T14:24:47.407Z,99764.36
2017-12-29T14:27:16.037Z,99751.24
2017-12-29T14:29:45.129Z,99758.88
2017-12-29T14:32:14.266Z,99751.27
2017-12-29T14:34:42.591Z,99746.02
2017-12-29T14:37:10.924Z,99736.96
2017-12-29T14:39:39.288Z,99732.09
2017-12-29T14:42:07.688Z,99721.07
2017-12-29T14:44:36.003Z,99723.23
2017-12-29T14:47:04.407Z,99727.67
2017-12-29T14:49:32.759Z,99724.77
2017-12-29T14:52:01.195Z,99726.17
2017-12-29T14:54:29.499Z,99726.79
2017-12-29T14:56:57.926Z,99719.87
2017-12-29T14:59:26.291Z,99713.78
2017-12-29T15:01:55.401Z,99714.26
2017-12-29T15:04:23.791Z,99699.45
2017-12-29T15:06:52.128Z,99704.27
2017-12-29T15:09:20.496Z,99691.77
2017-12-29T15:11:48.823Z,99686.92
2017-12-29T15:14:17.155Z,99678.30
2017-12-29T15:16:45.507Z,99673.94
2017-12-29T15:19:13.895Z,99674.16
2017-12-29T15:21:42.228Z,99678.11
2017-12-29T15:24:10.590Z,99681.16
2017-12-29T15:26:39.698Z,99673.84
2017-12-29T15:29:08.020Z,99670.53
2017-12-29T15:31:36.359Z,99670.70
2017-12-29T15:34:04.751Z,99665.34
2017-12-29T15:36:33.113Z,99667.63
2017-12-29T15:39:01.433Z,99668.48
2017-12-29T15:41:29.768Z,99659.86
2017-12-29T15:43:58.104Z,99660.78
2017-12-29T15:46:27.224Z,99662.11
2017-12-29T15:48:56.333Z,99646.45
2017-12-29T15:51:27.272Z,99648.99
2017-12-29T15:53:55.623Z,99634.28
2017-12-29T15:56:24.708Z,99633.18
2017-12-29T15:58:53.796Z,99627.42
2017-12-29T16:01:25.198Z,99622.61
2017-12-29T16:03:53.534Z,99626.70
2017-12-29T16:06:22.687Z,99620.76
2017-12-29T16:08:51.098Z,99626.17
2017-12-29T16:11:20.214Z,99616.91
2017-12-29T16:13:49.334Z,99610.22
2017-12-29T16:16:17.689Z,99605.58
2017-12-29T16:18:45.997Z,99607.66
2017-12-29T16:21:14.346Z,99594.98
2017-12-29T16:23:43.557Z,99592.11
2017-12-29T16:26:11.884Z,99587.06
2017-12-29T16:28:40.261Z,99584.95
2017-12-29T16:31:08.616Z,99582.80
2017-12-29T16:33:36.984Z,99586.03
2017-12-29T16:36:05.302Z,99590.58
2017-12-29T16:38:34.475Z,99590.28
2017-12-29T16:41:02.793Z,99587.83
2017-12-29T16:43:31.167Z,99582.88
2017-12-29T16:45:59.515Z,99584.22
2017-12-29T16:48:27.819Z,99584.22
2017-12-29T16:50:56.174Z,99578.13
2017-12-29T16:53:24.503Z,99575.05
2017-12-29T16:55:52.823Z,99576.50
2017-12-29T16:58:21.176Z,99572.27
2017-12-29T17:00:49.504Z,99571.78
2017-12-29T17:03:17.857Z,99562.19
2017-12-29T17:05:46.230Z,99554.67
2017-12-29T17:08:14.541Z,99547.70
2017-12-29T17:10:43.671Z,99534.21
2017-12-29T17:13:12.039Z,99535.55
2017-12-29T17:15:40.373Z,99530.61
2017-12-29T17:18:08.689Z,99520.31
2017-12-29T17:20:37.050Z,99520.60
2017-12-29T17:23:06.131Z,99519.16
2017-12-29T17:25:34.443Z,99520.49
2017-12-29T17:28:02.787Z,99514.63
2017-12-29T17:30:31.127Z,99512.27
2017-12-29T17:32:59.491Z,99514.48
2017-12-29T17:35:27.821Z,99510.58
2017-12-29T17:37:56.172Z,99511.61
2017-12-29T17:40:24.492Z,99511.60
2017-12-29T17:42:52.867Z,99494.69
2017-12-29T17:45:22.016Z,99494.27
2017-12-29T17:47:50.331Z,99489.02
2017-12-29T17:50:19.472Z,99491.17
2017-12-29T17:52:47.871Z,99497.64
2017-12-29T17:55:16.227Z,99489.95
2017-12-29T17:57:44.539Z,99491.17
2017-12-29T18:00:12.857Z,99486.22
2017-12-29T18:02:41.976Z,99475.31
2017-12-29T18:05:10.319Z,99480.64
2017-12-29T18:07:39.434Z,99490.22
2017-12-29T18:10:07.759Z,99492.78
2017-12-29T18:12:36.093Z,99491.75
2017-12-29T18:15:04.439Z,99487.26
2017-12-29T18:17:33.538Z,99482.20
2017-12-29T18:20:02.689Z,99482.30
2017-12-29T18:22:31.024Z,99484.64
2017-12-29T18:24:59.350Z,99482.37
2017-12-29T18:27:27.733Z,99487.33
2017-12-29T18:29:56.066Z,99478.80
2017-12-29T18:32:24.406Z,99470.30
2017-12-29T18:34:52.779Z,99465.16
2017-12-29T18:37:21.099Z,99462.61
2017-12-29T18:39:49.427Z,99455.81
2017-12-29T18:42:18.572Z,99461.38
2017-12-29T18:44:46.911Z,99457.72
2017-12-29T18:47:16.051Z,99461.63
2017-12-29T18:49:44.375Z,99465.83
2017-12-29T18:52:12.710Z,99458.85
2017-12-29T18:54:41.086Z,99460.41
2017-12-29T18:57:09.455Z,99454.31
2017-12-29T18:59:37.801Z,99458.14
2017-12-29T19:02:06.134Z,99449.30
2017-12-29T19:04:34.515Z,99445.17
2017-12-29T19:07:02.867Z,99445.41
2017-12-29T19:09:31.193Z,99445.29
2017-12-29T19:11:59.553Z,99432.44
2017-12-29T19:14:27.868Z,99438.90
2017-12-29T19:16:57.105Z,99439.02
2017-12-29T19:19:26.250Z,99435.81
2017-12-29T19:21:54.587Z,99437.97
2017-12-29T19:24:22.946Z,99434.59
2017-12-29T19:26:51.280Z,99429.23
2017-12-29T19:29:19.643Z,99427.98
2017-12-29T19:31:47.979Z,99426.67
2017-12-29T19:34:16.287Z,99426.56
2017-12-29T19:36:44.653Z,99420.80
2017-12-29T19:39:12.973Z,99423.59
2017-12-29T19:41:41.293Z,99427.08
2017-12-29T19:44:09.635Z,99425.45
2017-12-29T19:46:38.778Z,99426.16
2017-12-29T19:49:07.175Z,99421.41
2017-12-29T19:51:35.491Z,99421.41
2017-12-29T19:54:04.612Z,99426.56
2017-12-29T19:56:32.926Z,99422.03
2017-12-29T19:59:01.245Z,99421.10
2017-12-29T20:01:30.351Z,99421.10
2017-12-29T20:03:58.732Z,99415.83
2017-12-29T20:06:27.088Z,99423.44
2017-12-29T20:08:56.184Z,99422.31
2017-12-29T20:11:25.289Z,99426.92
2017-12-29T20:13:54.401Z,99416.86
2017-12-29T20:16:22.762Z,99412.95
2017-12-29T20:18:51.855Z,99412.84
2017-12-29T20:21:20.196Z,99419.12
2017-12-29T20:23:48.547Z,99426.61
2017-12-29T20:26:18.176Z,99422.39
2017-12-29T20:28:46.810Z,99427.05
2017-12-29T20:31:15.132Z,99433.33
2017-12-29T20:33:43.524Z,99432.11
2017-12-29T20:36:11.884Z,99439.42
2017-12-29T20:38:40.260Z,99437.67
2017-12-29T20:41:08.595Z,99434.29
2017-12-29T20:43:37.686Z,99438.61
2017-12-29T20:46:06.816Z,99435.30
2017-12-29T20:48:35.132Z,99433.85
2017-12-29T20:51:03.540Z,99435.48
2017-12-29T20:53:32.686Z,99430.45
2017-12-29T20:56:01.065Z,99430.01
2017-12-29T20:58:29.371Z,99421.28
2017-12-29T21:00:57.700Z,99416.73
2017-12-29T21:03:26.103Z,99411.89
2017-12-29T21:05:54.403Z,99411.66
2017-12-29T21:08:23.613Z,99408.16
2017-12-29T21:10:52.745Z,99410.62
2017-12-29T21:13:21.099Z,99403.34
2017-12-29T21:15:50.207Z,99399.41
2017-12-29T21:18:18.575Z,99401.20
2017-12-29T21:20:46.920Z,99403.13
2017-12-29T21:23:15.303Z,99401.80
2017-12-29T21:25:43.682Z,99402.84
2017-12-29T21:28:12.808Z,99402.33
2017-12-29T21:30:41.121Z,99403.25
2017-12-29T21:33:09.475Z,99405.09
2017-12-29T21:35:37.796Z,99398.72
2017-12-29T21:38:06.104Z,99391.52
2017-12-29T21:40:35.242Z,99396.05
2017-12-29T21:43:03.559Z,99398.61
2017-12-29T21:45:32.671Z,99407.16
2017-12-29T21:48:01.053Z,99404.82
2017-12-29T21:50:30.159Z,99407.48
2017-12-29T21:52:58.463Z,99404.08
2017-12-29T21:55:26.808Z,99398.14
2017-12-29T21:57:55.956Z,99409.77
2017-12-29T22:00:25.095Z,99405.23
2017-12-29T22:02:54.334Z,99402.67
2017-12-29T22:05:23.491Z,99404.02
2017-12-29T22:07:51.845Z,99404.13
2017-12-29T22:10:20.227Z,99410.36
2017-12-29T22:12:48.546Z,99405.54
2017-12-29T22:15:16.860Z,99405.05
2017-12-29T22:17:45.214Z,99399.48
2017-12-29T22:20:13.557Z,99411.73
2017-12-29T22:22:42.726Z,99411.22
2017-12-29T22:25:11.079Z,99412.63
2017-12-29T22:27:39.423Z,99417.28
2017-12-29T22:30:07.860Z,99415.53
2017-12-29T22:32:36.221Z,99417.20
2017-12-29T22:35:04.553Z,99410.48
2017-12-29T22:37:32.899Z,99408.77
2017-12-29T22:40:01.984Z,99413.38
2017-12-29T22:42:30.335Z,99418.02
2017-12-29T22:44:58.684Z,99414.72
2017-12-29T22:47:27.042Z,99412.45
2017-12-29T22:49:56.111Z,99421.10
2017-12-29T22:52:25.211Z,99417.61
2017-12-29T22:54:53.547Z,99415.98
2017-12-29T22:57:21.894Z,99427.61
2017-12-29T22:59:50.327Z,99424.90
2017-12-29T23:02:18.659Z,99421.92
2017-12-29T23:04:47.032Z,99427.16
2017-12-29T23:07:16.193Z,99432.95
2017-12-29T23:09:45.300Z,99432.84
2017-12-29T23:12:13.642Z,99431.80
2017-12-29T23:14:41.957Z,99429.31
2017-12-29T23:17:10.331Z,99433.03
2017-12-29T23:19:39.421Z,99431.58
2017-12-29T23:22:07.735Z,99434.06
2017-12-29T23:24:36.138Z,99427.03
2017-12-29T23:27:04.470Z,99427.66
2017-12-29T23:29:33.663Z,99424.13
2017-12-29T23:32:02.787Z,99423.20
2017-12-29T23:34:31.121Z,99430.80
2017-12-29T23:36:59.464Z,99423.47
2017-12-29T23:39:27.789Z,99421.02
2017-12-29T23:41:56.947Z,99427.16
2017-12-29T23:44:25.275Z,99441.62
2017-12-29T23:46:54.550Z,99437.84
2017-12-29T23:49:22.912Z,99425.70
2017-12-29T23:51:51.280Z,99427.25
2017-12-29T23:54:19.615Z,99429.17
2017-12-29T23:56:47.960Z,99434.32
2017-12-29T23:59:16.317Z,99434.09
